sensor_id;sensor_type;location;lat;lon;timestamp;temperature;humidity
15259;DHT22;34462;51.368;12.364;2022-09-02T00:00:06;14.10;99.90
15259;DHT22;34462;51.368;12.364;2022-09-02T00:02:39;14.10;99.90
15259;DHT22;34462;51.368;12.364;2022-09-02T00:05:08;14.10;99.90
15259;DHT22;34462;51.368;12.364;2022-09-02T00:07:36;14.00;99.90
15259;DHT22;34462;51.368;12.364;2022-09-02T00:10:05;14.00;99.90
15259;DHT22;34462;51.368;12.364;2022-09-02T00:12:34;13.90;99.90
15259;DHT22;34462;51.368;12.364;2022-09-02T00:15:04;13.90;99.90
15259;DHT22;34462;51.368;12.364;2022-09-02T00:17:33;13.80;99.90
15259;DHT22;34462;51.368;12.364;2022-09-02T00:20:01;13.80;99.90
15259;DHT22;34462;51.368;12.364;2022-09-02T00:22:30;13.80;99.90
15259;DHT22;34462;51.368;12.364;2022-09-02T00:24:58;13.80;99.90
15259;DHT22;34462;51.368;12.364;2022-09-02T00:27:27;13.80;99.90
15259;DHT22;34462;51.368;12.364;2022-09-02T00:29:56;13.90;99.90
15259;DHT22;34462;51.368;12.364;2022-09-02T00:32:25;13.80;99.90
15259;DHT22;34462;51.368;12.364;2022-09-02T00:34:54;13.80;99.90
15259;DHT22;34462;51.368;12.364;2022-09-02T00:37:25;13.80;99.90
15259;DHT22;34462;51.368;12.364;2022-09-02T00:39:53;13.70;99.90
15259;DHT22;34462;51.368;12.364;2022-09-02T00:42:23;13.70;99.90
15259;DHT22;34462;51.368;12.364;2022-09-02T00:44:52;13.70;99.90
15259;DHT22;34462;51.368;12.364;2022-09-02T00:47:22;13.70;99.90
15259;DHT22;34462;51.368;12.364;2022-09-02T00:49:52;13.70;99.90
15259;DHT22;34462;51.368;12.364;2022-09-02T00:52:23;13.70;99.90
15259;DHT22;34462;51.368;12.364;2022-09-02T00:54:56;13.70;99.90
15259;DHT22;34462;51.368;12.364;2022-09-02T00:57:31;13.70;99.90
15259;DHT22;34462;51.368;12.364;2022-09-02T01:00:07;13.60;99.90
15259;DHT22;34462;51.368;12.364;2022-09-02T01:02:40;13.60;99.90
15259;DHT22;34462;51.368;12.364;2022-09-02T01:05:10;13.60;99.90
15259;DHT22;34462;51.368;12.364;2022-09-02T01:07:41;13.50;99.90
15259;DHT22;34462;51.368;12.364;2022-09-02T01:10:14;13.60;99.90
15259;DHT22;34462;51.368;12.364;2022-09-02T01:12:47;13.50;99.90
15259;DHT22;34462;51.368;12.364;2022-09-02T01:15:15;13.50;99.90
15259;DHT22;34462;51.368;12.364;2022-09-02T01:17:47;13.50;99.90
15259;DHT22;34462;51.368;12.364;2022-09-02T01:20:20;13.60;99.90
15259;DHT22;34462;51.368;12.364;2022-09-02T01:22:53;13.50;99.90
15259;DHT22;34462;51.368;12.364;2022-09-02T01:25:26;13.40;99.90
15259;DHT22;34462;51.368;12.364;2022-09-02T01:27:58;13.40;99.90
15259;DHT22;34462;51.368;12.364;2022-09-02T01:30:28;13.30;99.90
15259;DHT22;34462;51.368;12.364;2022-09-02T01:32:57;13.30;99.90
15259;DHT22;34462;51.368;12.364;2022-09-02T01:35:26;13.30;99.90
15259;DHT22;34462;51.368;12.364;2022-09-02T01:37:57;13.20;99.90
15259;DHT22;34462;51.368;12.364;2022-09-02T01:40:29;13.30;99.90
15259;DHT22;34462;51.368;12.364;2022-09-02T01:43:00;13.30;99.90
15259;DHT22;34462;51.368;12.364;2022-09-02T01:45:33;13.30;99.90
15259;DHT22;34462;51.368;12.364;2022-09-02T01:48:02;13.20;99.90
15259;DHT22;34462;51.368;12.364;2022-09-02T01:50:32;13.20;99.90
15259;DHT22;34462;51.368;12.364;2022-09-02T01:53:04;13.20;99.90
15259;DHT22;34462;51.368;12.364;2022-09-02T01:55:33;13.20;99.90
15259;DHT22;34462;51.368;12.364;2022-09-02T01:58:02;13.20;99.90
15259;DHT22;34462;51.368;12.364;2022-09-02T02:00:30;13.20;99.90
15259;DHT22;34462;51.368;12.364;2022-09-02T02:02:59;13.10;99.90
15259;DHT22;34462;51.368;12.364;2022-09-02T02:05:28;13.10;99.90
15259;DHT22;34462;51.368;12.364;2022-09-02T02:07:57;13.10;99.90
15259;DHT22;34462;51.368;12.364;2022-09-02T02:10:28;13.10;99.90
15259;DHT22;34462;51.368;12.364;2022-09-02T02:12:56;13.00;99.90
15259;DHT22;34462;51.368;12.364;2022-09-02T02:15:24;13.00;99.90
15259;DHT22;34462;51.368;12.364;2022-09-02T02:17:52;12.90;99.90
15259;DHT22;34462;51.368;12.364;2022-09-02T02:20:20;12.90;99.90
15259;DHT22;34462;51.368;12.364;2022-09-02T02:22:48;12.90;99.90
15259;DHT22;34462;51.368;12.364;2022-09-02T02:25:17;12.90;99.90
15259;DHT22;34462;51.368;12.364;2022-09-02T02:27:46;12.90;99.90
15259;DHT22;34462;51.368;12.364;2022-09-02T02:30:15;12.90;99.90
15259;DHT22;34462;51.368;12.364;2022-09-02T02:32:46;12.80;99.90
15259;DHT22;34462;51.368;12.364;2022-09-02T02:35:15;12.90;99.90
15259;DHT22;34462;51.368;12.364;2022-09-02T02:37:46;12.80;99.90
15259;DHT22;34462;51.368;12.364;2022-09-02T02:40:17;12.70;99.90
15259;DHT22;34462;51.368;12.364;2022-09-02T02:42:49;12.70;99.90
15259;DHT22;34462;51.368;12.364;2022-09-02T02:45:20;12.70;99.90
15259;DHT22;34462;51.368;12.364;2022-09-02T02:47:50;12.60;99.90
15259;DHT22;34462;51.368;12.364;2022-09-02T02:50:20;12.70;99.90
15259;DHT22;34462;51.368;12.364;2022-09-02T02:52:51;12.70;99.90
15259;DHT22;34462;51.368;12.364;2022-09-02T02:55:20;12.70;99.90
15259;DHT22;34462;51.368;12.364;2022-09-02T02:57:51;12.60;99.90
15259;DHT22;34462;51.368;12.364;2022-09-02T03:00:21;12.70;99.90
15259;DHT22;34462;51.368;12.364;2022-09-02T03:02:54;12.70;99.90
15259;DHT22;34462;51.368;12.364;2022-09-02T03:05:23;12.60;99.90
15259;DHT22;34462;51.368;12.364;2022-09-02T03:07:51;12.60;99.90
15259;DHT22;34462;51.368;12.364;2022-09-02T03:10:20;12.60;99.90
15259;DHT22;34462;51.368;12.364;2022-09-02T03:12:52;12.60;99.90
15259;DHT22;34462;51.368;12.364;2022-09-02T03:15:21;12.70;99.90
15259;DHT22;34462;51.368;12.364;2022-09-02T03:17:49;12.60;99.90
15259;DHT22;34462;51.368;12.364;2022-09-02T03:20:17;12.50;99.90
15259;DHT22;34462;51.368;12.364;2022-09-02T03:22:47;12.50;99.90
15259;DHT22;34462;51.368;12.364;2022-09-02T03:25:18;12.60;99.90
15259;DHT22;34462;51.368;12.364;2022-09-02T03:27:48;12.60;99.90
15259;DHT22;34462;51.368;12.364;2022-09-02T03:30:21;12.50;99.90
15259;DHT22;34462;51.368;12.364;2022-09-02T03:32:51;12.40;99.90
15259;DHT22;34462;51.368;12.364;2022-09-02T03:35:20;12.40;99.90
15259;DHT22;34462;51.368;12.364;2022-09-02T03:37:50;12.30;99.90
15259;DHT22;34462;51.368;12.364;2022-09-02T03:40:22;12.40;99.90
15259;DHT22;34462;51.368;12.364;2022-09-02T03:42:52;12.30;99.90
15259;DHT22;34462;51.368;12.364;2022-09-02T03:45:27;12.30;99.90
15259;DHT22;34462;51.368;12.364;2022-09-02T03:47:56;12.30;99.90
15259;DHT22;34462;51.368;12.364;2022-09-02T03:50:29;12.20;99.90
15259;DHT22;34462;51.368;12.364;2022-09-02T03:53:01;12.30;99.90
15259;DHT22;34462;51.368;12.364;2022-09-02T03:55:30;12.30;99.90
15259;DHT22;34462;51.368;12.364;2022-09-02T03:57:58;12.30;99.90
15259;DHT22;34462;51.368;12.364;2022-09-02T04:00:34;12.20;99.90
15259;DHT22;34462;51.368;12.364;2022-09-02T04:03:04;12.20;99.90
15259;DHT22;34462;51.368;12.364;2022-09-02T04:05:32;12.20;99.90
15259;DHT22;34462;51.368;12.364;2022-09-02T04:08:01;12.20;99.90
15259;DHT22;34462;51.368;12.364;2022-09-02T04:10:29;12.20;99.90
15259;DHT22;34462;51.368;12.364;2022-09-02T04:12:58;12.20;99.90
15259;DHT22;34462;51.368;12.364;2022-09-02T04:15:26;12.20;99.90
15259;DHT22;34462;51.368;12.364;2022-09-02T04:17:55;12.20;99.90
15259;DHT22;34462;51.368;12.364;2022-09-02T04:20:23;12.20;99.90
15259;DHT22;34462;51.368;12.364;2022-09-02T04:22:51;12.30;99.90
15259;DHT22;34462;51.368;12.364;2022-09-02T04:25:19;12.20;99.90
15259;DHT22;34462;51.368;12.364;2022-09-02T04:27:53;12.30;99.90
15259;DHT22;34462;51.368;12.364;2022-09-02T04:30:21;12.20;99.90
15259;DHT22;34462;51.368;12.364;2022-09-02T04:32:51;12.30;99.90
15259;DHT22;34462;51.368;12.364;2022-09-02T04:35:21;12.20;99.90
15259;DHT22;34462;51.368;12.364;2022-09-02T04:37:49;12.20;99.90
15259;DHT22;34462;51.368;12.364;2022-09-02T04:40:18;12.20;99.90
15259;DHT22;34462;51.368;12.364;2022-09-02T04:42:46;12.20;99.90
15259;DHT22;34462;51.368;12.364;2022-09-02T04:45:14;12.20;99.90
15259;DHT22;34462;51.368;12.364;2022-09-02T04:47:42;12.20;99.90
15259;DHT22;34462;51.368;12.364;2022-09-02T04:50:11;12.30;99.90
15259;DHT22;34462;51.368;12.364;2022-09-02T04:52:41;12.30;99.90
15259;DHT22;34462;51.368;12.364;2022-09-02T04:55:09;12.30;99.90
15259;DHT22;34462;51.368;12.364;2022-09-02T04:57:37;12.30;99.90
15259;DHT22;34462;51.368;12.364;2022-09-02T05:00:08;12.30;99.90
15259;DHT22;34462;51.368;12.364;2022-09-02T05:02:37;12.40;99.90
15259;DHT22;34462;51.368;12.364;2022-09-02T05:05:07;12.40;99.90
15259;DHT22;34462;51.368;12.364;2022-09-02T05:07:37;12.40;99.90
15259;DHT22;34462;51.368;12.364;2022-09-02T05:10:08;12.50;99.90
15259;DHT22;34462;51.368;12.364;2022-09-02T05:12:39;12.50;99.90
15259;DHT22;34462;51.368;12.364;2022-09-02T05:15:08;12.60;99.90
15259;DHT22;34462;51.368;12.364;2022-09-02T05:17:38;12.70;99.90
15259;DHT22;34462;51.368;12.364;2022-09-02T05:20:08;12.70;99.90
15259;DHT22;34462;51.368;12.364;2022-09-02T05:22:36;12.80;99.90
15259;DHT22;34462;51.368;12.364;2022-09-02T05:25:07;13.00;99.90
15259;DHT22;34462;51.368;12.364;2022-09-02T05:27:37;13.10;99.90
15259;DHT22;34462;51.368;12.364;2022-09-02T05:30:06;13.30;99.90
15259;DHT22;34462;51.368;12.364;2022-09-02T05:32:35;13.50;99.90
15259;DHT22;34462;51.368;12.364;2022-09-02T05:35:04;13.70;99.90
15259;DHT22;34462;51.368;12.364;2022-09-02T05:37:34;13.80;99.90
15259;DHT22;34462;51.368;12.364;2022-09-02T05:40:03;13.90;99.90
15259;DHT22;34462;51.368;12.364;2022-09-02T05:42:34;14.10;99.90
15259;DHT22;34462;51.368;12.364;2022-09-02T05:45:03;14.20;99.90
15259;DHT22;34462;51.368;12.364;2022-09-02T05:47:33;14.40;99.90
15259;DHT22;34462;51.368;12.364;2022-09-02T05:50:01;14.50;99.90
15259;DHT22;34462;51.368;12.364;2022-09-02T05:52:33;14.50;99.90
15259;DHT22;34462;51.368;12.364;2022-09-02T05:55:01;14.60;99.90
15259;DHT22;34462;51.368;12.364;2022-09-02T05:57:30;14.70;99.90
15259;DHT22;34462;51.368;12.364;2022-09-02T05:59:59;14.80;99.90
15259;DHT22;34462;51.368;12.364;2022-09-02T06:02:27;15.00;99.90
15259;DHT22;34462;51.368;12.364;2022-09-02T06:04:56;15.10;99.90
15259;DHT22;34462;51.368;12.364;2022-09-02T06:07:24;15.20;99.90
15259;DHT22;34462;51.368;12.364;2022-09-02T06:09:52;15.30;99.90
15259;DHT22;34462;51.368;12.364;2022-09-02T06:12:20;15.40;99.90
15259;DHT22;34462;51.368;12.364;2022-09-02T06:14:49;15.50;99.90
15259;DHT22;34462;51.368;12.364;2022-09-02T06:17:18;15.50;99.90
15259;DHT22;34462;51.368;12.364;2022-09-02T06:19:47;15.60;99.90
15259;DHT22;34462;51.368;12.364;2022-09-02T06:22:18;15.70;99.90
15259;DHT22;34462;51.368;12.364;2022-09-02T06:24:46;15.70;99.90
15259;DHT22;34462;51.368;12.364;2022-09-02T06:27:14;15.80;99.90
15259;DHT22;34462;51.368;12.364;2022-09-02T06:29:42;15.80;99.90
15259;DHT22;34462;51.368;12.364;2022-09-02T06:32:11;15.90;99.90
15259;DHT22;34462;51.368;12.364;2022-09-02T06:34:41;15.90;99.90
15259;DHT22;34462;51.368;12.364;2022-09-02T06:37:09;15.90;99.90
15259;DHT22;34462;51.368;12.364;2022-09-02T06:39:37;16.00;99.90
15259;DHT22;34462;51.368;12.364;2022-09-02T06:42:09;16.00;99.90
15259;DHT22;34462;51.368;12.364;2022-09-02T06:44:37;16.00;99.90
15259;DHT22;34462;51.368;12.364;2022-09-02T06:47:05;16.10;99.90
15259;DHT22;34462;51.368;12.364;2022-09-02T06:49:33;16.10;99.90
15259;DHT22;34462;51.368;12.364;2022-09-02T06:52:03;16.10;99.90
15259;DHT22;34462;51.368;12.364;2022-09-02T06:54:31;16.20;99.90
15259;DHT22;34462;51.368;12.364;2022-09-02T06:56:59;16.20;99.90
15259;DHT22;34462;51.368;12.364;2022-09-02T06:59:27;16.30;99.90
15259;DHT22;34462;51.368;12.364;2022-09-02T07:01:56;16.40;99.90
15259;DHT22;34462;51.368;12.364;2022-09-02T07:04:24;16.30;99.90
15259;DHT22;34462;51.368;12.364;2022-09-02T07:07:14;16.40;99.90
15259;DHT22;34462;51.368;12.364;2022-09-02T07:09:42;16.50;99.90
15259;DHT22;34462;51.368;12.364;2022-09-02T07:12:10;16.70;99.90
15259;DHT22;34462;51.368;12.364;2022-09-02T07:14:40;16.80;99.90
15259;DHT22;34462;51.368;12.364;2022-09-02T07:17:13;16.80;99.90
15259;DHT22;34462;51.368;12.364;2022-09-02T07:19:43;16.90;99.90
15259;DHT22;34462;51.368;12.364;2022-09-02T07:22:11;17.00;99.90
15259;DHT22;34462;51.368;12.364;2022-09-02T07:24:45;17.10;99.90
15259;DHT22;34462;51.368;12.364;2022-09-02T07:27:13;17.30;99.90
15259;DHT22;34462;51.368;12.364;2022-09-02T07:29:41;17.30;99.90
15259;DHT22;34462;51.368;12.364;2022-09-02T07:32:14;17.40;99.90
15259;DHT22;34462;51.368;12.364;2022-09-02T07:34:43;17.50;99.90
15259;DHT22;34462;51.368;12.364;2022-09-02T07:37:11;17.60;99.90
15259;DHT22;34462;51.368;12.364;2022-09-02T07:39:39;17.70;99.90
15259;DHT22;34462;51.368;12.364;2022-09-02T07:42:10;17.70;99.90
15259;DHT22;34462;51.368;12.364;2022-09-02T07:44:38;17.90;99.90
15259;DHT22;34462;51.368;12.364;2022-09-02T07:47:07;17.90;99.90
15259;DHT22;34462;51.368;12.364;2022-09-02T07:49:37;18.00;99.90
15259;DHT22;34462;51.368;12.364;2022-09-02T07:52:25;18.10;99.90
15259;DHT22;34462;51.368;12.364;2022-09-02T07:54:53;18.20;99.90
15259;DHT22;34462;51.368;12.364;2022-09-02T07:57:23;18.30;99.90
15259;DHT22;34462;51.368;12.364;2022-09-02T07:59:51;18.40;99.90
15259;DHT22;34462;51.368;12.364;2022-09-02T08:02:19;18.40;99.90
15259;DHT22;34462;51.368;12.364;2022-09-02T08:04:47;18.50;99.90
15259;DHT22;34462;51.368;12.364;2022-09-02T08:07:16;18.60;99.90
15259;DHT22;34462;51.368;12.364;2022-09-02T08:09:50;18.60;99.90
15259;DHT22;34462;51.368;12.364;2022-09-02T08:12:18;18.70;99.90
15259;DHT22;34462;51.368;12.364;2022-09-02T08:14:49;18.70;99.90
15259;DHT22;34462;51.368;12.364;2022-09-02T08:17:17;18.80;99.90
15259;DHT22;34462;51.368;12.364;2022-09-02T08:19:45;18.90;99.90
15259;DHT22;34462;51.368;12.364;2022-09-02T08:22:13;19.00;99.90
15259;DHT22;34462;51.368;12.364;2022-09-02T08:24:41;19.10;99.90
15259;DHT22;34462;51.368;12.364;2022-09-02T08:27:09;19.20;99.90
15259;DHT22;34462;51.368;12.364;2022-09-02T08:29:37;19.20;99.90
15259;DHT22;34462;51.368;12.364;2022-09-02T08:32:07;19.30;99.90
15259;DHT22;34462;51.368;12.364;2022-09-02T08:34:35;19.40;99.90
15259;DHT22;34462;51.368;12.364;2022-09-02T08:37:03;19.50;99.90
15259;DHT22;34462;51.368;12.364;2022-09-02T08:39:32;19.60;99.90
15259;DHT22;34462;51.368;12.364;2022-09-02T08:42:06;19.60;99.90
15259;DHT22;34462;51.368;12.364;2022-09-02T08:44:40;19.60;99.90
15259;DHT22;34462;51.368;12.364;2022-09-02T08:47:14;19.70;99.90
15259;DHT22;34462;51.368;12.364;2022-09-02T08:49:48;19.80;99.90
15259;DHT22;34462;51.368;12.364;2022-09-02T08:52:24;19.90;99.90
15259;DHT22;34462;51.368;12.364;2022-09-02T08:54:57;19.90;99.90
15259;DHT22;34462;51.368;12.364;2022-09-02T08:57:29;20.00;99.90
15259;DHT22;34462;51.368;12.364;2022-09-02T09:00:00;20.00;99.90
15259;DHT22;34462;51.368;12.364;2022-09-02T09:02:42;20.10;99.90
15259;DHT22;34462;51.368;12.364;2022-09-02T09:05:29;20.20;99.90
15259;DHT22;34462;51.368;12.364;2022-09-02T09:08:14;20.30;99.90
15259;DHT22;34462;51.368;12.364;2022-09-02T09:10:54;20.40;99.90
15259;DHT22;34462;51.368;12.364;2022-09-02T09:13:53;20.40;99.90
15259;DHT22;34462;51.368;12.364;2022-09-02T09:16:40;20.50;99.90
15259;DHT22;34462;51.368;12.364;2022-09-02T09:19:23;20.40;99.90
15259;DHT22;34462;51.368;12.364;2022-09-02T09:22:00;20.40;99.90
15259;DHT22;34462;51.368;12.364;2022-09-02T09:24:34;20.40;99.90
15259;DHT22;34462;51.368;12.364;2022-09-02T09:27:08;20.40;99.90
15259;DHT22;34462;51.368;12.364;2022-09-02T09:29:39;20.40;99.90
15259;DHT22;34462;51.368;12.364;2022-09-02T09:32:14;20.40;99.90
15259;DHT22;34462;51.368;12.364;2022-09-02T09:34:58;20.50;99.90
15259;DHT22;34462;51.368;12.364;2022-09-02T09:37:31;20.60;99.90
15259;DHT22;34462;51.368;12.364;2022-09-02T09:40:28;20.60;99.90
15259;DHT22;34462;51.368;12.364;2022-09-02T09:43:11;20.60;99.90
15259;DHT22;34462;51.368;12.364;2022-09-02T09:45:43;20.70;99.90
15259;DHT22;34462;51.368;12.364;2022-09-02T09:48:20;20.70;99.90
15259;DHT22;34462;51.368;12.364;2022-09-02T09:51:19;20.70;99.90
15259;DHT22;34462;51.368;12.364;2022-09-02T09:53:47;20.90;99.90
15259;DHT22;34462;51.368;12.364;2022-09-02T09:56:28;20.90;99.90
15259;DHT22;34462;51.368;12.364;2022-09-02T09:59:06;20.90;99.90
15259;DHT22;34462;51.368;12.364;2022-09-02T10:01:55;21.00;99.90
15259;DHT22;34462;51.368;12.364;2022-09-02T10:04:28;21.10;99.90
15259;DHT22;34462;51.368;12.364;2022-09-02T10:07:11;21.20;99.90
15259;DHT22;34462;51.368;12.364;2022-09-02T10:09:40;21.30;99.90
15259;DHT22;34462;51.368;12.364;2022-09-02T10:12:11;21.40;99.90
15259;DHT22;34462;51.368;12.364;2022-09-02T10:14:43;21.40;99.90
15259;DHT22;34462;51.368;12.364;2022-09-02T10:17:31;21.50;99.90
15259;DHT22;34462;51.368;12.364;2022-09-02T10:20:13;21.50;99.90
15259;DHT22;34462;51.368;12.364;2022-09-02T10:23:16;21.60;99.90
15259;DHT22;34462;51.368;12.364;2022-09-02T10:26:02;21.70;99.90
15259;DHT22;34462;51.368;12.364;2022-09-02T10:29:06;21.70;99.90
15259;DHT22;34462;51.368;12.364;2022-09-02T10:32:18;21.80;99.90
15259;DHT22;34462;51.368;12.364;2022-09-02T10:35:01;21.80;99.90
15259;DHT22;34462;51.368;12.364;2022-09-02T10:37:45;21.70;99.90
15259;DHT22;34462;51.368;12.364;2022-09-02T10:40:34;21.60;99.90
15259;DHT22;34462;51.368;12.364;2022-09-02T10:43:09;21.60;99.90
15259;DHT22;34462;51.368;12.364;2022-09-02T10:45:53;21.70;99.90
15259;DHT22;34462;51.368;12.364;2022-09-02T10:48:36;21.70;99.90
15259;DHT22;34462;51.368;12.364;2022-09-02T10:51:17;21.90;99.90
15259;DHT22;34462;51.368;12.364;2022-09-02T10:54:00;22.00;99.90
15259;DHT22;34462;51.368;12.364;2022-09-02T10:56:44;22.00;99.90
15259;DHT22;34462;51.368;12.364;2022-09-02T10:59:21;22.10;99.90
15259;DHT22;34462;51.368;12.364;2022-09-02T11:01:56;22.10;99.90
15259;DHT22;34462;51.368;12.364;2022-09-02T11:04:36;22.10;99.90
15259;DHT22;34462;51.368;12.364;2022-09-02T11:07:14;22.20;99.90
15259;DHT22;34462;51.368;12.364;2022-09-02T11:09:48;22.30;99.90
15259;DHT22;34462;51.368;12.364;2022-09-02T11:12:27;22.40;99.90
15259;DHT22;34462;51.368;12.364;2022-09-02T11:15:04;22.40;99.90
15259;DHT22;34462;51.368;12.364;2022-09-02T11:17:44;22.40;99.90
15259;DHT22;34462;51.368;12.364;2022-09-02T11:20:27;22.30;99.90
15259;DHT22;34462;51.368;12.364;2022-09-02T11:23:03;22.20;99.90
15259;DHT22;34462;51.368;12.364;2022-09-02T11:25:43;21.90;99.90
15259;DHT22;34462;51.368;12.364;2022-09-02T11:28:29;21.80;99.90
15259;DHT22;34462;51.368;12.364;2022-09-02T11:31:09;21.70;99.90
15259;DHT22;34462;51.368;12.364;2022-09-02T11:33:48;21.70;99.90
15259;DHT22;34462;51.368;12.364;2022-09-02T11:36:23;21.60;99.90
15259;DHT22;34462;51.368;12.364;2022-09-02T11:39:03;21.70;99.90
15259;DHT22;34462;51.368;12.364;2022-09-02T11:41:46;21.80;99.90
15259;DHT22;34462;51.368;12.364;2022-09-02T11:44:53;21.90;99.90
15259;DHT22;34462;51.368;12.364;2022-09-02T11:48:02;22.00;99.90
15259;DHT22;34462;51.368;12.364;2022-09-02T11:50:57;22.20;99.90
15259;DHT22;34462;51.368;12.364;2022-09-02T11:53:37;22.30;99.90
15259;DHT22;34462;51.368;12.364;2022-09-02T11:56:12;22.10;99.90
15259;DHT22;34462;51.368;12.364;2022-09-02T11:58:46;22.10;99.90
15259;DHT22;34462;51.368;12.364;2022-09-02T12:01:26;22.00;99.90
15259;DHT22;34462;51.368;12.364;2022-09-02T12:04:02;21.90;99.90
15259;DHT22;34462;51.368;12.364;2022-09-02T12:07:21;21.70;99.90
15259;DHT22;34462;51.368;12.364;2022-09-02T12:09:55;21.70;99.90
15259;DHT22;34462;51.368;12.364;2022-09-02T12:13:01;21.70;99.90
15259;DHT22;34462;51.368;12.364;2022-09-02T12:15:34;21.90;99.90
15259;DHT22;34462;51.368;12.364;2022-09-02T12:18:11;22.20;99.90
15259;DHT22;34462;51.368;12.364;2022-09-02T12:21:09;22.40;99.90
15259;DHT22;34462;51.368;12.364;2022-09-02T12:24:08;22.70;99.90
15259;DHT22;34462;51.368;12.364;2022-09-02T12:29:58;22.90;99.90
15259;DHT22;34462;51.368;12.364;2022-09-02T12:35:53;23.00;99.90
15259;DHT22;34462;51.368;12.364;2022-09-02T12:38:29;23.20;99.90
15259;DHT22;34462;51.368;12.364;2022-09-02T12:41:22;23.50;99.90
15259;DHT22;34462;51.368;12.364;2022-09-02T12:44:17;23.80;99.90
15259;DHT22;34462;51.368;12.364;2022-09-02T12:47:04;24.10;99.90
15259;DHT22;34462;51.368;12.364;2022-09-02T12:49:42;24.40;99.90
15259;DHT22;34462;51.368;12.364;2022-09-02T12:52:43;24.40;99.90
15259;DHT22;34462;51.368;12.364;2022-09-02T12:55:18;24.50;99.90
15259;DHT22;34462;51.368;12.364;2022-09-02T12:57:51;24.60;99.90
15259;DHT22;34462;51.368;12.364;2022-09-02T13:00:30;24.50;99.90
15259;DHT22;34462;51.368;12.364;2022-09-02T13:03:19;24.60;99.90
15259;DHT22;34462;51.368;12.364;2022-09-02T13:06:04;24.60;99.90
15259;DHT22;34462;51.368;12.364;2022-09-02T13:15:21;24.60;99.90
15259;DHT22;34462;51.368;12.364;2022-09-02T13:18:15;24.60;99.90
15259;DHT22;34462;51.368;12.364;2022-09-02T13:24:47;24.20;99.90
15259;DHT22;34462;51.368;12.364;2022-09-02T13:27:46;23.90;99.90
15259;DHT22;34462;51.368;12.364;2022-09-02T13:30:43;23.70;99.90
15259;DHT22;34462;51.368;12.364;2022-09-02T13:33:22;23.60;99.90
15259;DHT22;34462;51.368;12.364;2022-09-02T13:35:54;23.90;99.90
15259;DHT22;34462;51.368;12.364;2022-09-02T13:38:26;24.00;99.90
15259;DHT22;34462;51.368;12.364;2022-09-02T13:40:57;24.20;99.90
15259;DHT22;34462;51.368;12.364;2022-09-02T13:43:26;24.20;99.90
15259;DHT22;34462;51.368;12.364;2022-09-02T13:45:59;24.00;99.90
15259;DHT22;34462;51.368;12.364;2022-09-02T13:48:30;23.80;99.90
15259;DHT22;34462;51.368;12.364;2022-09-02T13:51:07;23.50;99.90
15259;DHT22;34462;51.368;12.364;2022-09-02T13:53:41;23.30;99.90
15259;DHT22;34462;51.368;12.364;2022-09-02T13:56:33;23.20;99.90
15259;DHT22;34462;51.368;12.364;2022-09-02T13:59:01;23.10;99.90
15259;DHT22;34462;51.368;12.364;2022-09-02T14:01:31;23.00;99.90
15259;DHT22;34462;51.368;12.364;2022-09-02T14:04:04;23.10;99.90
15259;DHT22;34462;51.368;12.364;2022-09-02T14:06:38;23.30;99.90
15259;DHT22;34462;51.368;12.364;2022-09-02T14:09:10;23.30;99.90
15259;DHT22;34462;51.368;12.364;2022-09-02T14:11:48;23.20;99.90
15259;DHT22;34462;51.368;12.364;2022-09-02T14:14:21;23.00;99.90
15259;DHT22;34462;51.368;12.364;2022-09-02T14:16:51;22.80;99.90
15259;DHT22;34462;51.368;12.364;2022-09-02T14:19:24;22.70;99.90
15259;DHT22;34462;51.368;12.364;2022-09-02T14:21:53;22.60;99.90
15259;DHT22;34462;51.368;12.364;2022-09-02T14:24:24;22.60;99.90
15259;DHT22;34462;51.368;12.364;2022-09-02T14:26:56;22.70;99.90
15259;DHT22;34462;51.368;12.364;2022-09-02T14:29:27;22.90;99.90
15259;DHT22;34462;51.368;12.364;2022-09-02T14:32:11;23.00;99.90
15259;DHT22;34462;51.368;12.364;2022-09-02T14:34:43;23.10;99.90
15259;DHT22;34462;51.368;12.364;2022-09-02T14:37:23;23.20;99.90
15259;DHT22;34462;51.368;12.364;2022-09-02T14:40:05;23.40;99.90
15259;DHT22;34462;51.368;12.364;2022-09-02T14:42:47;23.50;99.90
15259;DHT22;34462;51.368;12.364;2022-09-02T14:45:25;23.80;99.90
15259;DHT22;34462;51.368;12.364;2022-09-02T14:47:58;23.90;99.90
15259;DHT22;34462;51.368;12.364;2022-09-02T14:50:30;24.00;99.90
15259;DHT22;34462;51.368;12.364;2022-09-02T14:53:04;23.90;99.90
15259;DHT22;34462;51.368;12.364;2022-09-02T14:55:48;23.70;99.90
15259;DHT22;34462;51.368;12.364;2022-09-02T14:58:23;23.50;99.90
15259;DHT22;34462;51.368;12.364;2022-09-02T15:00:54;23.30;99.90
15259;DHT22;34462;51.368;12.364;2022-09-02T15:03:23;23.20;99.90
15259;DHT22;34462;51.368;12.364;2022-09-02T15:05:52;23.20;99.90
15259;DHT22;34462;51.368;12.364;2022-09-02T15:08:20;23.20;99.90
15259;DHT22;34462;51.368;12.364;2022-09-02T15:10:49;23.20;99.90
15259;DHT22;34462;51.368;12.364;2022-09-02T15:13:25;23.10;99.90
15259;DHT22;34462;51.368;12.364;2022-09-02T15:15:56;23.10;99.90
15259;DHT22;34462;51.368;12.364;2022-09-02T15:18:25;22.80;99.90
15259;DHT22;34462;51.368;12.364;2022-09-02T15:20:53;22.60;99.90
15259;DHT22;34462;51.368;12.364;2022-09-02T15:23:21;22.50;99.90
15259;DHT22;34462;51.368;12.364;2022-09-02T15:25:51;22.30;99.90
15259;DHT22;34462;51.368;12.364;2022-09-02T15:28:20;22.10;99.90
15259;DHT22;34462;51.368;12.364;2022-09-02T15:30:56;22.00;99.90
15259;DHT22;34462;51.368;12.364;2022-09-02T15:33:25;21.90;99.90
15259;DHT22;34462;51.368;12.364;2022-09-02T15:35:54;21.90;99.90
15259;DHT22;34462;51.368;12.364;2022-09-02T15:38:32;21.80;99.90
15259;DHT22;34462;51.368;12.364;2022-09-02T15:41:12;21.70;99.90
15259;DHT22;34462;51.368;12.364;2022-09-02T15:43:42;21.60;99.90
15259;DHT22;34462;51.368;12.364;2022-09-02T15:46:21;21.50;99.90
15259;DHT22;34462;51.368;12.364;2022-09-02T15:48:51;21.40;99.90
15259;DHT22;34462;51.368;12.364;2022-09-02T15:51:27;21.40;99.90
15259;DHT22;34462;51.368;12.364;2022-09-02T15:53:56;21.40;99.90
15259;DHT22;34462;51.368;12.364;2022-09-02T15:56:27;21.60;99.90
15259;DHT22;34462;51.368;12.364;2022-09-02T15:58:58;21.70;99.90
15259;DHT22;34462;51.368;12.364;2022-09-02T16:01:30;21.80;99.90
15259;DHT22;34462;51.368;12.364;2022-09-02T16:04:01;21.70;99.90
15259;DHT22;34462;51.368;12.364;2022-09-02T16:06:30;21.60;99.90
15259;DHT22;34462;51.368;12.364;2022-09-02T16:09:00;21.60;99.90
15259;DHT22;34462;51.368;12.364;2022-09-02T16:11:29;21.60;99.90